sensor_id;sensor_type;location;lat;lon;timestamp;P1;durP1;ratioP1;P2;durP2;ratioP2
48215;SDS011;34005;48.844;10.098;2024-01-25T00:00:41;10.00;;;3.00;;
48215;SDS011;34005;48.844;10.098;2024-01-25T00:03:11;18.42;;;4.40;;
48215;SDS011;34005;48.844;10.098;2024-01-25T00:05:38;21.05;;;4.68;;
48215;SDS011;34005;48.844;10.098;2024-01-25T00:08:06;14.07;;;3.53;;
48215;SDS011;34005;48.844;10.098;2024-01-25T00:10:34;20.88;;;4.40;;
48215;SDS011;34005;48.844;10.098;2024-01-25T00:13:01;14.68;;;3.53;;
48215;SDS011;34005;48.844;10.098;2024-01-25T00:15:29;17.15;;;3.72;;
48215;SDS011;34005;48.844;10.098;2024-01-25T00:17:57;19.20;;;4.43;;
48215;SDS011;34005;48.844;10.098;2024-01-25T00:20:26;18.83;;;3.83;;
48215;SDS011;34005;48.844;10.098;2024-01-25T00:22:54;16.23;;;3.75;;
48215;SDS011;34005;48.844;10.098;2024-01-25T00:25:21;18.95;;;3.88;;
48215;SDS011;34005;48.844;10.098;2024-01-25T00:27:49;16.80;;;3.85;;
48215;SDS011;34005;48.844;10.098;2024-01-25T00:30:17;17.88;;;3.50;;
48215;SDS011;34005;48.844;10.098;2024-01-25T00:32:45;15.02;;;3.78;;
48215;SDS011;34005;48.844;10.098;2024-01-25T00:35:13;19.35;;;4.82;;
48215;SDS011;34005;48.844;10.098;2024-01-25T00:37:43;15.40;;;4.13;;
48215;SDS011;34005;48.844;10.098;2024-01-25T00:40:11;20.02;;;4.03;;
48215;SDS011;34005;48.844;10.098;2024-01-25T00:42:41;15.20;;;3.63;;
48215;SDS011;34005;48.844;10.098;2024-01-25T00:45:10;13.95;;;3.75;;
48215;SDS011;34005;48.844;10.098;2024-01-25T00:47:39;28.42;;;4.57;;
48215;SDS011;34005;48.844;10.098;2024-01-25T00:50:07;16.08;;;4.03;;
48215;SDS011;34005;48.844;10.098;2024-01-25T00:52:35;22.05;;;4.32;;
48215;SDS011;34005;48.844;10.098;2024-01-25T00:55:05;14.25;;;3.80;;
48215;SDS011;34005;48.844;10.098;2024-01-25T00:57:34;13.73;;;3.38;;
48215;SDS011;34005;48.844;10.098;2024-01-25T01:00:02;18.90;;;4.20;;
48215;SDS011;34005;48.844;10.098;2024-01-25T01:02:33;15.90;;;3.50;;
48215;SDS011;34005;48.844;10.098;2024-01-25T01:05:03;19.38;;;4.20;;
48215;SDS011;34005;48.844;10.098;2024-01-25T01:07:32;20.77;;;4.63;;
48215;SDS011;34005;48.844;10.098;2024-01-25T01:10:00;14.85;;;3.42;;
48215;SDS011;34005;48.844;10.098;2024-01-25T01:12:29;19.55;;;3.42;;
48215;SDS011;34005;48.844;10.098;2024-01-25T01:14:57;20.83;;;3.97;;
48215;SDS011;34005;48.844;10.098;2024-01-25T01:17:25;17.42;;;3.97;;
48215;SDS011;34005;48.844;10.098;2024-01-25T01:19:53;17.13;;;3.25;;
48215;SDS011;34005;48.844;10.098;2024-01-25T01:22:21;17.80;;;3.72;;
48215;SDS011;34005;48.844;10.098;2024-01-25T01:24:49;17.10;;;3.78;;
48215;SDS011;34005;48.844;10.098;2024-01-25T01:27:16;14.48;;;3.58;;
48215;SDS011;34005;48.844;10.098;2024-01-25T01:29:45;20.88;;;3.38;;
48215;SDS011;34005;48.844;10.098;2024-01-25T01:32:13;21.67;;;4.43;;
48215;SDS011;34005;48.844;10.098;2024-01-25T01:34:40;16.25;;;3.55;;
48215;SDS011;34005;48.844;10.098;2024-01-25T01:37:08;20.10;;;4.40;;
48215;SDS011;34005;48.844;10.098;2024-01-25T01:39:36;22.98;;;4.95;;
48215;SDS011;34005;48.844;10.098;2024-01-25T01:42:04;17.58;;;4.03;;
48215;SDS011;34005;48.844;10.098;2024-01-25T01:44:31;16.45;;;3.63;;
48215;SDS011;34005;48.844;10.098;2024-01-25T01:47:00;26.48;;;4.28;;
48215;SDS011;34005;48.844;10.098;2024-01-25T01:49:28;20.77;;;4.50;;
48215;SDS011;34005;48.844;10.098;2024-01-25T01:51:56;17.02;;;3.78;;
48215;SDS011;34005;48.844;10.098;2024-01-25T01:54:24;17.33;;;3.88;;
48215;SDS011;34005;48.844;10.098;2024-01-25T01:56:52;15.43;;;3.78;;
48215;SDS011;34005;48.844;10.098;2024-01-25T01:59:20;15.90;;;3.90;;
48215;SDS011;34005;48.844;10.098;2024-01-25T02:01:51;20.98;;;4.20;;
48215;SDS011;34005;48.844;10.098;2024-01-25T02:04:21;13.82;;;3.55;;
48215;SDS011;34005;48.844;10.098;2024-01-25T02:06:48;19.88;;;4.07;;
48215;SDS011;34005;48.844;10.098;2024-01-25T02:09:16;19.50;;;4.10;;
48215;SDS011;34005;48.844;10.098;2024-01-25T02:11:44;19.23;;;3.58;;
48215;SDS011;34005;48.844;10.098;2024-01-25T02:14:11;20.75;;;3.90;;
48215;SDS011;34005;48.844;10.098;2024-01-25T02:16:39;18.15;;;4.50;;
48215;SDS011;34005;48.844;10.098;2024-01-25T02:19:11;15.07;;;3.67;;
48215;SDS011;34005;48.844;10.098;2024-01-25T02:21:41;17.48;;;3.38;;
48215;SDS011;34005;48.844;10.098;2024-01-25T02:24:10;25.30;;;4.95;;
48215;SDS011;34005;48.844;10.098;2024-01-25T02:26:37;14.35;;;3.67;;
48215;SDS011;34005;48.844;10.098;2024-01-25T02:29:05;22.20;;;4.38;;
48215;SDS011;34005;48.844;10.098;2024-01-25T02:31:34;14.45;;;4.18;;
48215;SDS011;34005;48.844;10.098;2024-01-25T02:34:02;17.23;;;4.40;;
48215;SDS011;34005;48.844;10.098;2024-01-25T02:36:30;20.88;;;4.00;;
48215;SDS011;34005;48.844;10.098;2024-01-25T02:38:57;18.38;;;4.18;;
48215;SDS011;34005;48.844;10.098;2024-01-25T02:41:26;16.30;;;4.35;;
48215;SDS011;34005;48.844;10.098;2024-01-25T02:43:56;24.70;;;4.68;;
48215;SDS011;34005;48.844;10.098;2024-01-25T02:46:24;19.83;;;4.07;;
48215;SDS011;34005;48.844;10.098;2024-01-25T02:48:51;21.25;;;5.45;;
48215;SDS011;34005;48.844;10.098;2024-01-25T02:51:19;21.00;;;4.78;;
48215;SDS011;34005;48.844;10.098;2024-01-25T02:53:47;15.05;;;4.22;;
48215;SDS011;34005;48.844;10.098;2024-01-25T02:56:15;18.08;;;3.08;;
48215;SDS011;34005;48.844;10.098;2024-01-25T02:58:44;21.85;;;3.80;;
48215;SDS011;34005;48.844;10.098;2024-01-25T03:01:12;22.75;;;3.85;;
48215;SDS011;34005;48.844;10.098;2024-01-25T03:03:40;14.68;;;3.95;;
48215;SDS011;34005;48.844;10.098;2024-01-25T03:06:08;18.60;;;4.80;;
48215;SDS011;34005;48.844;10.098;2024-01-25T03:08:36;19.00;;;4.43;;
48215;SDS011;34005;48.844;10.098;2024-01-25T03:11:03;21.60;;;4.18;;
48215;SDS011;34005;48.844;10.098;2024-01-25T03:13:31;16.08;;;3.13;;
48215;SDS011;34005;48.844;10.098;2024-01-25T03:16:01;16.50;;;3.83;;
48215;SDS011;34005;48.844;10.098;2024-01-25T03:18:29;10.65;;;3.42;;
48215;SDS011;34005;48.844;10.098;2024-01-25T03:20:57;17.73;;;4.15;;
48215;SDS011;34005;48.844;10.098;2024-01-25T03:23:25;13.57;;;3.53;;
48215;SDS011;34005;48.844;10.098;2024-01-25T03:25:53;17.48;;;3.95;;
48215;SDS011;34005;48.844;10.098;2024-01-25T03:28:21;18.63;;;4.80;;
48215;SDS011;34005;48.844;10.098;2024-01-25T03:30:48;19.77;;;4.50;;
48215;SDS011;34005;48.844;10.098;2024-01-25T03:33:18;19.15;;;4.30;;
48215;SDS011;34005;48.844;10.098;2024-01-25T03:35:45;14.52;;;3.80;;
48215;SDS011;34005;48.844;10.098;2024-01-25T03:38:13;12.38;;;3.40;;
48215;SDS011;34005;48.844;10.098;2024-01-25T03:40:40;16.73;;;3.25;;
48215;SDS011;34005;48.844;10.098;2024-01-25T03:43:10;8.85;;;3.28;;
48215;SDS011;34005;48.844;10.098;2024-01-25T03:45:47;19.60;;;4.82;;
48215;SDS011;34005;48.844;10.098;2024-01-25T03:48:15;17.92;;;4.18;;
48215;SDS011;34005;48.844;10.098;2024-01-25T03:50:44;20.55;;;4.72;;
48215;SDS011;34005;48.844;10.098;2024-01-25T03:53:12;16.42;;;3.55;;
48215;SDS011;34005;48.844;10.098;2024-01-25T03:55:41;11.80;;;3.22;;
48215;SDS011;34005;48.844;10.098;2024-01-25T04:02:55;17.33;;;3.80;;
48215;SDS011;34005;48.844;10.098;2024-01-25T04:08:57;15.05;;;4.07;;
48215;SDS011;34005;48.844;10.098;2024-01-25T04:11:49;18.73;;;4.22;;
48215;SDS011;34005;48.844;10.098;2024-01-25T04:14:29;18.95;;;4.07;;
48215;SDS011;34005;48.844;10.098;2024-01-25T04:20:44;15.93;;;3.60;;
48215;SDS011;34005;48.844;10.098;2024-01-25T04:30:50;20.05;;;3.78;;
48215;SDS011;34005;48.844;10.098;2024-01-25T04:34:10;14.27;;;3.63;;
48215;SDS011;34005;48.844;10.098;2024-01-25T04:37:06;13.40;;;3.15;;
48215;SDS011;34005;48.844;10.098;2024-01-25T04:39:47;19.83;;;4.40;;
48215;SDS011;34005;48.844;10.098;2024-01-25T04:57:14;13.25;;;3.20;;
48215;SDS011;34005;48.844;10.098;2024-01-25T05:00:50;17.83;;;3.65;;
48215;SDS011;34005;48.844;10.098;2024-01-25T05:04:51;18.80;;;4.70;;
48215;SDS011;34005;48.844;10.098;2024-01-25T05:11:49;19.08;;;4.03;;
48215;SDS011;34005;48.844;10.098;2024-01-25T05:29:40;15.60;;;4.55;;
48215;SDS011;34005;48.844;10.098;2024-01-25T05:36:15;16.30;;;4.72;;
48215;SDS011;34005;48.844;10.098;2024-01-25T06:00:08;16.33;;;4.47;;
48215;SDS011;34005;48.844;10.098;2024-01-25T06:02:38;22.00;;;4.93;;
48215;SDS011;34005;48.844;10.098;2024-01-25T06:05:06;15.75;;;3.40;;
48215;SDS011;34005;48.844;10.098;2024-01-25T06:18:30;14.20;;;3.63;;
48215;SDS011;34005;48.844;10.098;2024-01-25T06:51:20;20.63;;;3.95;;
48215;SDS011;34005;48.844;10.098;2024-01-25T06:54:13;11.57;;;3.00;;
48215;SDS011;34005;48.844;10.098;2024-01-25T06:57:08;15.65;;;3.75;;
48215;SDS011;34005;48.844;10.098;2024-01-25T07:00:29;15.35;;;3.92;;
48215;SDS011;34005;48.844;10.098;2024-01-25T07:07:38;16.00;;;3.42;;
48215;SDS011;34005;48.844;10.098;2024-01-25T07:10:07;25.92;;;4.07;;
48215;SDS011;34005;48.844;10.098;2024-01-25T08:48:48;18.07;;;5.43;;
48215;SDS011;34005;48.844;10.098;2024-01-25T08:58:23;11.97;;;4.57;;
48215;SDS011;34005;48.844;10.098;2024-01-25T09:00:54;18.10;;;5.47;;
48215;SDS011;34005;48.844;10.098;2024-01-25T09:21:37;14.03;;;4.37;;
48215;SDS011;34005;48.844;10.098;2024-01-25T09:24:05;16.75;;;3.80;;
48215;SDS011;34005;48.844;10.098;2024-01-25T09:26:33;13.40;;;4.30;;
48215;SDS011;34005;48.844;10.098;2024-01-25T09:29:01;24.55;;;5.15;;
48215;SDS011;34005;48.844;10.098;2024-01-25T09:31:29;18.40;;;4.32;;
48215;SDS011;34005;48.844;10.098;2024-01-25T09:33:57;14.82;;;4.40;;
48215;SDS011;34005;48.844;10.098;2024-01-25T09:36:25;19.58;;;5.30;;
48215;SDS011;34005;48.844;10.098;2024-01-25T09:38:54;19.88;;;5.00;;
48215;SDS011;34005;48.844;10.098;2024-01-25T09:41:21;19.33;;;4.40;;
48215;SDS011;34005;48.844;10.098;2024-01-25T09:43:49;21.20;;;4.72;;
48215;SDS011;34005;48.844;10.098;2024-01-25T09:46:17;19.85;;;5.10;;
48215;SDS011;34005;48.844;10.098;2024-01-25T09:48:45;17.63;;;5.07;;
48215;SDS011;34005;48.844;10.098;2024-01-25T09:51:15;16.40;;;4.60;;
48215;SDS011;34005;48.844;10.098;2024-01-25T09:53:43;17.92;;;5.18;;
48215;SDS011;34005;48.844;10.098;2024-01-25T09:56:14;19.25;;;5.20;;
48215;SDS011;34005;48.844;10.098;2024-01-25T09:58:45;16.00;;;4.70;;
48215;SDS011;34005;48.844;10.098;2024-01-25T10:01:15;16.85;;;4.90;;
48215;SDS011;34005;48.844;10.098;2024-01-25T10:03:43;17.15;;;5.10;;
48215;SDS011;34005;48.844;10.098;2024-01-25T10:06:11;14.77;;;4.30;;
48215;SDS011;34005;48.844;10.098;2024-01-25T10:08:40;18.95;;;5.55;;
48215;SDS011;34005;48.844;10.098;2024-01-25T10:11:09;19.55;;;5.57;;
48215;SDS011;34005;48.844;10.098;2024-01-25T10:13:41;13.35;;;4.68;;
48215;SDS011;34005;48.844;10.098;2024-01-25T10:16:10;18.10;;;4.35;;
48215;SDS011;34005;48.844;10.098;2024-01-25T10:18:39;20.15;;;4.72;;
48215;SDS011;34005;48.844;10.098;2024-01-25T10:21:09;22.23;;;4.60;;
48215;SDS011;34005;48.844;10.098;2024-01-25T10:23:37;22.20;;;4.90;;
48215;SDS011;34005;48.844;10.098;2024-01-25T10:26:05;18.83;;;5.28;;
48215;SDS011;34005;48.844;10.098;2024-01-25T10:28:36;15.70;;;4.93;;
48215;SDS011;34005;48.844;10.098;2024-01-25T10:31:06;16.10;;;3.83;;
48215;SDS011;34005;48.844;10.098;2024-01-25T10:33:35;16.13;;;4.22;;
48215;SDS011;34005;48.844;10.098;2024-01-25T10:36:08;16.60;;;4.63;;
48215;SDS011;34005;48.844;10.098;2024-01-25T10:38:36;15.32;;;4.35;;
48215;SDS011;34005;48.844;10.098;2024-01-25T10:41:05;13.95;;;4.38;;
48215;SDS011;34005;48.844;10.098;2024-01-25T10:43:33;14.32;;;5.53;;
48215;SDS011;34005;48.844;10.098;2024-01-25T10:46:03;15.10;;;4.85;;
48215;SDS011;34005;48.844;10.098;2024-01-25T10:48:34;18.50;;;5.03;;
48215;SDS011;34005;48.844;10.098;2024-01-25T10:51:05;16.80;;;4.72;;
48215;SDS011;34005;48.844;10.098;2024-01-25T10:53:34;13.05;;;4.05;;
48215;SDS011;34005;48.844;10.098;2024-01-25T10:56:04;15.07;;;5.28;;
48215;SDS011;34005;48.844;10.098;2024-01-25T10:58:33;15.23;;;4.28;;
48215;SDS011;34005;48.844;10.098;2024-01-25T11:01:07;16.45;;;4.03;;
48215;SDS011;34005;48.844;10.098;2024-01-25T11:03:45;21.10;;;4.80;;
48215;SDS011;34005;48.844;10.098;2024-01-25T11:56:02;14.50;;;4.15;;
48215;SDS011;34005;48.844;10.098;2024-01-25T12:03:56;11.15;;;3.60;;
48215;SDS011;34005;48.844;10.098;2024-01-25T12:06:25;13.05;;;3.38;;
48215;SDS011;34005;48.844;10.098;2024-01-25T12:19:55;14.95;;;3.42;;
48215;SDS011;34005;48.844;10.098;2024-01-25T12:23:03;20.10;;;6.53;;
48215;SDS011;34005;48.844;10.098;2024-01-25T12:30:29;12.30;;;3.45;;
48215;SDS011;34005;48.844;10.098;2024-01-25T12:33:00;9.38;;;3.20;;
48215;SDS011;34005;48.844;10.098;2024-01-25T12:36:20;12.50;;;2.85;;
48215;SDS011;34005;48.844;10.098;2024-01-25T12:39:53;14.95;;;2.97;;
48215;SDS011;34005;48.844;10.098;2024-01-25T13:42:25;17.48;;;2.63;;
48215;SDS011;34005;48.844;10.098;2024-01-25T13:45:13;19.08;;;3.55;;
48215;SDS011;34005;48.844;10.098;2024-01-25T13:48:42;14.52;;;4.05;;
48215;SDS011;34005;48.844;10.098;2024-01-25T13:52:04;14.55;;;3.55;;
48215;SDS011;34005;48.844;10.098;2024-01-25T13:59:46;11.48;;;2.70;;
48215;SDS011;34005;48.844;10.098;2024-01-25T14:03:05;19.73;;;3.80;;
48215;SDS011;34005;48.844;10.098;2024-01-25T14:13:39;14.95;;;3.42;;
48215;SDS011;34005;48.844;10.098;2024-01-25T14:55:53;8.70;;;2.28;;
48215;SDS011;34005;48.844;10.098;2024-01-25T14:58:21;14.10;;;2.92;;
48215;SDS011;34005;48.844;10.098;2024-01-25T15:00:50;13.57;;;2.42;;
48215;SDS011;34005;48.844;10.098;2024-01-25T15:03:43;16.13;;;3.33;;
48215;SDS011;34005;48.844;10.098;2024-01-25T15:09:36;9.15;;;2.72;;
48215;SDS011;34005;48.844;10.098;2024-01-25T15:12:15;6.93;;;2.30;;
48215;SDS011;34005;48.844;10.098;2024-01-25T15:14:47;8.95;;;2.42;;
48215;SDS011;34005;48.844;10.098;2024-01-25T15:17:17;11.13;;;3.35;;
48215;SDS011;34005;48.844;10.098;2024-01-25T15:19:46;7.72;;;2.35;;
48215;SDS011;34005;48.844;10.098;2024-01-25T15:22:15;9.80;;;2.72;;
48215;SDS011;34005;48.844;10.098;2024-01-25T15:35:33;11.25;;;3.45;;
48215;SDS011;34005;48.844;10.098;2024-01-25T15:38:00;14.57;;;3.72;;
48215;SDS011;34005;48.844;10.098;2024-01-25T15:40:33;8.65;;;3.03;;
48215;SDS011;34005;48.844;10.098;2024-01-25T15:43:01;10.05;;;2.72;;
48215;SDS011;34005;48.844;10.098;2024-01-25T15:45:30;14.77;;;2.63;;
48215;SDS011;34005;48.844;10.098;2024-01-25T15:47:57;12.95;;;2.88;;
48215;SDS011;34005;48.844;10.098;2024-01-25T15:50:34;12.77;;;3.00;;
48215;SDS011;34005;48.844;10.098;2024-01-25T15:53:08;12.77;;;2.78;;
48215;SDS011;34005;48.844;10.098;2024-01-25T15:55:41;18.85;;;3.65;;
48215;SDS011;34005;48.844;10.098;2024-01-25T15:58:09;17.60;;;4.47;;
48215;SDS011;34005;48.844;10.098;2024-01-25T16:00:36;10.60;;;4.07;;
48215;SDS011;34005;48.844;10.098;2024-01-25T16:03:05;11.80;;;3.92;;
48215;SDS011;34005;48.844;10.098;2024-01-25T16:05:32;12.50;;;3.78;;
48215;SDS011;34005;48.844;10.098;2024-01-25T16:08:01;15.25;;;3.78;;
48215;SDS011;34005;48.844;10.098;2024-01-25T16:10:29;16.17;;;4.35;;
48215;SDS011;34005;48.844;10.098;2024-01-25T16:12:57;11.57;;;3.55;;
48215;SDS011;34005;48.844;10.098;2024-01-25T16:15:37;13.75;;;3.78;;
48215;SDS011;34005;48.844;10.098;2024-01-25T16:18:05;11.25;;;3.15;;
48215;SDS011;34005;48.844;10.098;2024-01-25T16:20:33;11.77;;;3.10;;
48215;SDS011;34005;48.844;10.098;2024-01-25T16:23:06;14.15;;;3.47;;
48215;SDS011;34005;48.844;10.098;2024-01-25T16:25:36;7.90;;;3.00;;
48215;SDS011;34005;48.844;10.098;2024-01-25T16:28:08;8.05;;;3.78;;
48215;SDS011;34005;48.844;10.098;2024-01-25T16:30:43;15.27;;;3.65;;
48215;SDS011;34005;48.844;10.098;2024-01-25T16:33:29;14.82;;;4.25;;
48215;SDS011;34005;48.844;10.098;2024-01-25T16:36:02;21.73;;;3.92;;
48215;SDS011;34005;48.844;10.098;2024-01-25T16:38:39;15.02;;;4.38;;
48215;SDS011;34005;48.844;10.098;2024-01-25T16:41:11;17.05;;;4.35;;
48215;SDS011;34005;48.844;10.098;2024-01-25T16:43:45;11.25;;;3.83;;
48215;SDS011;34005;48.844;10.098;2024-01-25T16:46:17;19.30;;;4.40;;
48215;SDS011;34005;48.844;10.098;2024-01-25T16:48:47;12.02;;;3.97;;
48215;SDS011;34005;48.844;10.098;2024-01-25T16:51:18;35.50;;;9.68;;
48215;SDS011;34005;48.844;10.098;2024-01-25T16:53:52;22.75;;;8.55;;
48215;SDS011;34005;48.844;10.098;2024-01-25T16:56:22;35.47;;;12.05;;
48215;SDS011;34005;48.844;10.098;2024-01-25T16:58:54;160.73;;;58.20;;
48215;SDS011;34005;48.844;10.098;2024-01-25T17:01:24;180.45;;;69.28;;
48215;SDS011;34005;48.844;10.098;2024-01-25T17:03:53;171.15;;;65.88;;
48215;SDS011;34005;48.844;10.098;2024-01-25T17:06:23;111.45;;;43.47;;
48215;SDS011;34005;48.844;10.098;2024-01-25T17:08:54;61.60;;;24.27;;
48215;SDS011;34005;48.844;10.098;2024-01-25T17:11:24;28.40;;;8.35;;
48215;SDS011;34005;48.844;10.098;2024-01-25T17:13:56;25.58;;;6.70;;
48215;SDS011;34005;48.844;10.098;2024-01-25T17:16:25;19.73;;;5.13;;
48215;SDS011;34005;48.844;10.098;2024-01-25T17:18:54;18.75;;;6.00;;
48215;SDS011;34005;48.844;10.098;2024-01-25T17:21:26;19.75;;;6.22;;
48215;SDS011;34005;48.844;10.098;2024-01-25T17:23:57;17.20;;;5.25;;
48215;SDS011;34005;48.844;10.098;2024-01-25T17:26:25;19.88;;;4.75;;
48215;SDS011;34005;48.844;10.098;2024-01-25T17:28:54;14.57;;;4.53;;
48215;SDS011;34005;48.844;10.098;2024-01-25T17:31:23;24.83;;;6.72;;
48215;SDS011;34005;48.844;10.098;2024-01-25T17:33:51;42.22;;;16.40;;
48215;SDS011;34005;48.844;10.098;2024-01-25T17:36:20;40.05;;;18.13;;
48215;SDS011;34005;48.844;10.098;2024-01-25T17:38:50;41.15;;;17.38;;
48215;SDS011;34005;48.844;10.098;2024-01-25T17:41:21;40.75;;;14.00;;
48215;SDS011;34005;48.844;10.098;2024-01-25T17:43:49;25.98;;;10.32;;
48215;SDS011;34005;48.844;10.098;2024-01-25T17:46:18;26.75;;;8.90;;
48215;SDS011;34005;48.844;10.098;2024-01-25T17:48:46;26.25;;;10.70;;
48215;SDS011;34005;48.844;10.098;2024-01-25T17:51:15;21.42;;;6.82;;
48215;SDS011;34005;48.844;10.098;2024-01-25T17:53:44;19.58;;;6.05;;
48215;SDS011;34005;48.844;10.098;2024-01-25T17:56:12;15.55;;;5.13;;
48215;SDS011;34005;48.844;10.098;2024-01-25T17:58:42;15.10;;;4.25;;
48215;SDS011;34005;48.844;10.098;2024-01-25T18:01:10;13.63;;;4.95;;
48215;SDS011;34005;48.844;10.098;2024-01-25T18:03:38;11.32;;;5.30;;
48215;SDS011;34005;48.844;10.098;2024-01-25T18:06:07;13.35;;;4.90;;
48215;SDS011;34005;48.844;10.098;2024-01-25T18:08:35;18.58;;;4.57;;
48215;SDS011;34005;48.844;10.098;2024-01-25T18:11:03;19.33;;;6.13;;
48215;SDS011;34005;48.844;10.098;2024-01-25T18:13:31;21.95;;;6.88;;
48215;SDS011;34005;48.844;10.098;2024-01-25T18:16:01;35.45;;;14.65;;
48215;SDS011;34005;48.844;10.098;2024-01-25T18:18:30;30.73;;;14.32;;
48215;SDS011;34005;48.844;10.098;2024-01-25T18:20:59;41.50;;;18.70;;
48215;SDS011;34005;48.844;10.098;2024-01-25T18:23:27;44.60;;;20.98;;
48215;SDS011;34005;48.844;10.098;2024-01-25T18:25:55;37.63;;;16.13;;
48215;SDS011;34005;48.844;10.098;2024-01-25T18:28:25;21.63;;;11.57;;
48215;SDS011;34005;48.844;10.098;2024-01-25T18:30:53;33.47;;;13.55;;
48215;SDS011;34005;48.844;10.098;2024-01-25T18:33:24;24.38;;;9.30;;
48215;SDS011;34005;48.844;10.098;2024-01-25T18:35:54;24.23;;;9.32;;
48215;SDS011;34005;48.844;10.098;2024-01-25T18:38:22;18.25;;;8.63;;
48215;SDS011;34005;48.844;10.098;2024-01-25T18:40:50;23.38;;;11.18;;
48215;SDS011;34005;48.844;10.098;2024-01-25T18:43:18;20.67;;;10.32;;
48215;SDS011;34005;48.844;10.098;2024-01-25T18:45:47;21.77;;;10.70;;
48215;SDS011;34005;48.844;10.098;2024-01-25T18:48:16;22.50;;;10.57;;
48215;SDS011;34005;48.844;10.098;2024-01-25T18:50:46;22.95;;;10.27;;
48215;SDS011;34005;48.844;10.098;2024-01-25T18:53:14;23.27;;;10.18;;
48215;SDS011;34005;48.844;10.098;2024-01-25T18:55:43;16.75;;;7.88;;
48215;SDS011;34005;48.844;10.098;2024-01-25T18:58:12;24.50;;;9.40;;
48215;SDS011;34005;48.844;10.098;2024-01-25T19:00:41;21.30;;;8.85;;
48215;SDS011;34005;48.844;10.098;2024-01-25T19:03:10;23.10;;;8.93;;
48215;SDS011;34005;48.844;10.098;2024-01-25T19:05:39;31.23;;;9.27;;
48215;SDS011;34005;48.844;10.098;2024-01-25T19:08:13;19.25;;;8.00;;
48215;SDS011;34005;48.844;10.098;2024-01-25T19:10:42;45.38;;;18.52;;
48215;SDS011;34005;48.844;10.098;2024-01-25T19:13:11;54.47;;;20.13;;
48215;SDS011;34005;48.844;10.098;2024-01-25T19:15:39;51.85;;;19.00;;
48215;SDS011;34005;48.844;10.098;2024-01-25T19:18:07;58.22;;;21.92;;
48215;SDS011;34005;48.844;10.098;2024-01-25T19:20:36;57.22;;;23.13;;
48215;SDS011;34005;48.844;10.098;2024-01-25T19:23:06;40.70;;;15.93;;
48215;SDS011;34005;48.844;10.098;2024-01-25T19:25:36;29.00;;;12.48;;
48215;SDS011;34005;48.844;10.098;2024-01-25T19:28:04;24.65;;;11.23;;
48215;SDS011;34005;48.844;10.098;2024-01-25T19:30:33;19.40;;;7.85;;
48215;SDS011;34005;48.844;10.098;2024-01-25T19:33:02;14.52;;;6.85;;
48215;SDS011;34005;48.844;10.098;2024-01-25T19:35:31;16.35;;;6.78;;
48215;SDS011;34005;48.844;10.098;2024-01-25T19:37:59;14.15;;;7.35;;
48215;SDS011;34005;48.844;10.098;2024-01-25T19:40:28;17.77;;;7.18;;
48215;SDS011;34005;48.844;10.098;2024-01-25T19:42:58;17.90;;;6.72;;
48215;SDS011;34005;48.844;10.098;2024-01-25T19:45:27;20.63;;;9.00;;
48215;SDS011;34005;48.844;10.098;2024-01-25T19:47:56;14.07;;;7.57;;
48215;SDS011;34005;48.844;10.098;2024-01-25T19:50:24;22.95;;;8.98;;
48215;SDS011;34005;48.844;10.098;2024-01-25T19:52:53;17.90;;;7.88;;
48215;SDS011;34005;48.844;10.098;2024-01-25T19:55:22;23.23;;;8.68;;
48215;SDS011;34005;48.844;10.098;2024-01-25T19:57:51;13.75;;;7.18;;
48215;SDS011;34005;48.844;10.098;2024-01-25T20:00:22;17.10;;;7.15;;
48215;SDS011;34005;48.844;10.098;2024-01-25T20:02:51;14.50;;;7.00;;
48215;SDS011;34005;48.844;10.098;2024-01-25T20:05:21;15.85;;;6.60;;
48215;SDS011;34005;48.844;10.098;2024-01-25T20:07:50;16.67;;;6.10;;
48215;SDS011;34005;48.844;10.098;2024-01-25T20:10:19;21.42;;;6.47;;
48215;SDS011;34005;48.844;10.098;2024-01-25T20:12:47;19.83;;;5.93;;
48215;SDS011;34005;48.844;10.098;2024-01-25T20:15:16;13.02;;;5.10;;
48215;SDS011;34005;48.844;10.098;2024-01-25T20:17:48;9.90;;;5.05;;
48215;SDS011;34005;48.844;10.098;2024-01-25T20:20:17;15.25;;;5.43;;
48215;SDS011;34005;48.844;10.098;2024-01-25T20:22:53;11.52;;;4.53;;
48215;SDS011;34005;48.844;10.098;2024-01-25T20:25:21;17.48;;;6.38;;
48215;SDS011;34005;48.844;10.098;2024-01-25T20:27:49;12.50;;;5.15;;
48215;SDS011;34005;48.844;10.098;2024-01-25T20:30:18;10.63;;;4.75;;
48215;SDS011;34005;48.844;10.098;2024-01-25T20:32:49;16.38;;;6.95;;
48215;SDS011;34005;48.844;10.098;2024-01-25T20:35:18;12.18;;;7.35;;
48215;SDS011;34005;48.844;10.098;2024-01-25T20:37:46;20.60;;;8.00;;
48215;SDS011;34005;48.844;10.098;2024-01-25T20:40:15;19.63;;;8.63;;
48215;SDS011;34005;48.844;10.098;2024-01-25T20:42:43;19.95;;;7.47;;
48215;SDS011;34005;48.844;10.098;2024-01-25T20:45:11;19.08;;;7.95;;
48215;SDS011;34005;48.844;10.098;2024-01-25T20:47:40;16.02;;;6.95;;
48215;SDS011;34005;48.844;10.098;2024-01-25T20:50:10;13.63;;;6.68;;
48215;SDS011;34005;48.844;10.098;2024-01-25T20:52:48;22.58;;;8.40;;
48215;SDS011;34005;48.844;10.098;2024-01-25T20:55:16;16.80;;;7.30;;
48215;SDS011;34005;48.844;10.098;2024-01-25T20:57:44;15.10;;;7.00;;
48215;SDS011;34005;48.844;10.098;2024-01-25T21:00:13;23.92;;;7.30;;
48215;SDS011;34005;48.844;10.098;2024-01-25T21:02:41;17.63;;;6.93;;
48215;SDS011;34005;48.844;10.098;2024-01-25T21:05:12;22.17;;;7.90;;
48215;SDS011;34005;48.844;10.098;2024-01-25T21:07:41;22.10;;;7.60;;
48215;SDS011;34005;48.844;10.098;2024-01-25T21:10:10;14.80;;;8.15;;
48215;SDS011;34005;48.844;10.098;2024-01-25T21:12:39;17.42;;;8.35;;
48215;SDS011;34005;48.844;10.098;2024-01-25T21:15:08;21.52;;;9.73;;
48215;SDS011;34005;48.844;10.098;2024-01-25T21:17:37;12.98;;;6.80;;
48215;SDS011;34005;48.844;10.098;2024-01-25T21:20:06;10.63;;;5.90;;
48215;SDS011;34005;48.844;10.098;2024-01-25T21:22:38;16.95;;;7.15;;
48215;SDS011;34005;48.844;10.098;2024-01-25T21:25:07;14.65;;;6.28;;
48215;SDS011;34005;48.844;10.098;2024-01-25T21:27:37;14.70;;;6.28;;
48215;SDS011;34005;48.844;10.098;2024-01-25T21:30:05;16.75;;;6.85;;
48215;SDS011;34005;48.844;10.098;2024-01-25T21:32:34;13.43;;;6.57;;
48215;SDS011;34005;48.844;10.098;2024-01-25T21:35:03;18.20;;;6.05;;
48215;SDS011;34005;48.844;10.098;2024-01-25T21:37:32;16.48;;;6.30;;
48215;SDS011;34005;48.844;10.098;2024-01-25T21:40:01;19.42;;;7.68;;
48215;SDS011;34005;48.844;10.098;2024-01-25T21:42:31;20.45;;;7.82;;
48215;SDS011;34005;48.844;10.098;2024-01-25T21:45:03;22.50;;;8.95;;
48215;SDS011;34005;48.844;10.098;2024-01-25T21:47:35;35.88;;;17.17;;
48215;SDS011;34005;48.844;10.098;2024-01-25T21:50:04;17.67;;;8.77;;
48215;SDS011;34005;48.844;10.098;2024-01-25T21:52:35;14.85;;;6.97;;
48215;SDS011;34005;48.844;10.098;2024-01-25T21:55:05;13.68;;;6.70;;
48215;SDS011;34005;48.844;10.098;2024-01-25T21:57:43;19.08;;;6.60;;
48215;SDS011;34005;48.844;10.098;2024-01-25T22:00:13;13.45;;;5.80;;
48215;SDS011;34005;48.844;10.098;2024-01-25T22:02:42;12.98;;;6.20;;
48215;SDS011;34005;48.844;10.098;2024-01-25T22:05:13;18.30;;;6.65;;
48215;SDS011;34005;48.844;10.098;2024-01-25T22:07:42;12.93;;;6.32;;
48215;SDS011;34005;48.844;10.098;2024-01-25T22:10:12;16.02;;;6.75;;